Time;durP1;ratioP1;P1;durP2;ratioP2;P2;SDS_P1;SDS_P2;PMS_P1;PMS_P2;Temp;Humidity;BMP_temperature;BMP_pressure;BME280_temperature;BME280_humidity;BME280_pressure;Samples;Min_cycle;Max_cycle;Signal;HPM_P1;HPM_P2
2023/04/07 00:00:20;;;;;;;10.90;7.67;;;9.10;99.90;;;;;;5051953;28;20175;-70
2023/04/07 00:02:47;;;;;;;15.43;8.80;;;9.20;99.90;;;;;;5051599;28;20171;-71
2023/04/07 00:05:13;;;;;;;12.60;8.23;;;9.30;99.90;;;;;;5051988;28;20449;-71
2023/04/07 00:07:39;;;;;;;11.43;7.83;;;9.30;99.90;;;;;;5050317;28;20519;-71
2023/04/07 00:10:06;;;;;;;11.43;8.00;;;9.40;99.90;;;;;;5051885;28;20405;-70
2023/04/07 00:12:31;;;;;;;14.13;8.57;;;9.40;99.90;;;;;;5051726;28;20763;-71
2023/04/07 00:14:56;;;;;;;9.83;8.13;;;9.40;99.90;;;;;;5051910;28;20418;-70
2023/04/07 00:17:22;;;;;;;10.57;8.60;;;9.40;99.90;;;;;;5051647;28;20167;-72
2023/04/07 00:19:47;;;;;;;12.70;9.37;;;9.40;99.90;;;;;;5054477;28;20177;-71
2023/04/07 00:22:13;;;;;;;14.13;9.10;;;9.50;99.90;;;;;;5055977;28;20256;-72
2023/04/07 00:24:38;;;;;;;11.20;8.13;;;9.50;99.90;;;;;;5054500;28;20619;-70
2023/04/07 00:27:04;;;;;;;11.70;8.20;;;9.50;99.90;;;;;;5055452;28;20659;-72
2023/04/07 00:29:30;;;;;;;12.23;8.70;;;9.50;99.90;;;;;;5055810;28;20163;-71
2023/04/07 00:31:55;;;;;;;12.80;8.70;;;9.60;99.90;;;;;;5055752;28;20196;-71
2023/04/07 00:34:21;;;;;;;10.70;8.20;;;9.50;99.90;;;;;;5055544;28;20197;-70
2023/04/07 00:36:50;;;;;;;11.60;9.00;;;9.40;99.90;;;;;;5055627;28;20659;-71
2023/04/07 00:39:20;;;;;;;12.40;8.17;;;9.40;99.90;;;;;;5055670;28;20235;-71
2023/04/07 00:41:46;;;;;;;14.70;8.67;;;9.50;99.90;;;;;;5055605;28;20402;-70
2023/04/07 00:44:12;;;;;;;11.03;7.50;;;9.60;99.90;;;;;;5055023;28;20429;-70
2023/04/07 00:46:38;;;;;;;10.93;8.37;;;9.50;99.90;;;;;;5054866;28;20405;-70
2023/04/07 00:49:03;;;;;;;12.47;8.87;;;9.50;99.90;;;;;;5053534;28;20495;-70
2023/04/07 00:51:30;;;;;;;10.33;6.47;;;9.50;99.90;;;;;;5055411;28;20316;-71
2023/04/07 00:53:55;;;;;;;13.13;8.90;;;9.50;99.90;;;;;;5055150;28;20204;-71
2023/04/07 00:56:21;;;;;;;10.10;7.70;;;9.60;99.90;;;;;;5055220;28;20405;-71
2023/04/07 00:58:46;;;;;;;14.83;7.77;;;9.60;99.90;;;;;;5055012;28;20171;-71
2023/04/07 01:01:20;;;;;;;12.77;8.70;;;9.70;99.90;;;;;;5055009;28;20163;-71
2023/04/07 01:03:56;;;;;;;15.70;9.77;;;9.80;99.90;;;;;;5055191;28;20187;-71
2023/04/07 01:06:25;;;;;;;12.60;8.90;;;9.80;99.90;;;;;;5055083;28;20408;-70
2023/04/07 01:09:00;;;;;;;15.27;11.87;;;9.80;99.90;;;;;;5054847;28;20415;-71
2023/04/07 01:11:41;;;;;;;16.97;11.20;;;9.90;99.90;;;;;;5055097;28;20411;-71
2023/04/07 01:14:10;;;;;;;14.00;10.47;;;9.90;99.90;;;;;;5054621;28;20464;-71
2023/04/07 01:16:48;;;;;;;17.17;11.17;;;9.90;99.90;;;;;;5054918;28;20412;-72
2023/04/07 01:19:35;;;;;;;20.97;14.17;;;10.00;99.90;;;;;;5054718;28;20393;-72
2023/04/07 01:22:05;;;;;;;21.57;15.20;;;10.00;99.90;;;;;;5054802;28;20488;-70
2023/04/07 01:24:45;;;;;;;22.87;14.63;;;10.00;99.90;;;;;;5053396;28;20528;-70
2023/04/07 01:27:20;;;;;;;23.57;14.27;;;10.00;99.90;;;;;;5054399;28;20397;-72
2023/04/07 01:29:49;;;;;;;26.70;15.07;;;10.10;99.90;;;;;;5054060;28;20758;-72
2023/04/07 01:32:19;;;;;;;20.20;14.13;;;10.10;99.90;;;;;;5054575;28;20407;-70
2023/04/07 01:34:47;;;;;;;22.40;14.03;;;10.10;99.90;;;;;;5054455;28;20453;-70
2023/04/07 01:37:14;;;;;;;20.80;14.30;;;10.20;99.90;;;;;;5054124;28;20425;-71
2023/04/07 01:39:40;;;;;;;18.50;13.70;;;10.20;99.90;;;;;;5053326;28;20898;-71
2023/04/07 01:42:06;;;;;;;24.27;13.93;;;10.20;99.90;;;;;;5054046;28;20669;-71
2023/04/07 01:44:33;;;;;;;22.80;14.80;;;10.20;99.90;;;;;;5053887;28;20559;-71
2023/04/07 01:46:59;;;;;;;18.33;13.00;;;10.20;99.90;;;;;;5054055;28;20408;-72
2023/04/07 01:49:26;;;;;;;20.90;11.70;;;10.30;99.90;;;;;;5054374;28;20413;-70
2023/04/07 01:51:53;;;;;;;18.67;12.57;;;10.30;99.90;;;;;;5054146;28;20413;-70
2023/04/07 01:54:20;;;;;;;20.60;13.20;;;10.30;99.90;;;;;;5054171;28;20464;-70
2023/04/07 01:56:46;;;;;;;20.87;13.23;;;10.30;99.90;;;;;;5054055;28;20398;-70
2023/04/07 01:59:11;;;;;;;19.80;12.63;;;10.30;99.90;;;;;;5053910;28;20398;-69
2023/04/07 02:01:37;;;;;;;23.77;13.90;;;10.30;99.90;;;;;;5054061;28;20198;-70
2023/04/07 02:04:24;;;;;;;21.20;13.13;;;10.30;99.90;;;;;;5054020;28;20210;-71
2023/04/07 02:06:58;;;;;;;24.30;13.77;;;10.30;99.90;;;;;;5053735;28;20170;-70
2023/04/07 02:09:28;;;;;;;28.03;13.30;;;10.30;99.90;;;;;;5053973;28;20991;-70
2023/04/07 02:11:56;;;;;;;22.10;14.23;;;10.30;99.90;;;;;;5053942;28;20441;-70
2023/04/07 02:14:23;;;;;;;19.60;13.17;;;10.30;99.90;;;;;;5052317;28;20897;-69
2023/04/07 02:16:50;;;;;;;23.50;13.00;;;10.30;99.90;;;;;;5053281;28;20838;-69
2023/04/07 02:19:16;;;;;;;27.17;13.00;;;10.30;99.90;;;;;;5052196;28;20440;-69
2023/04/07 02:21:44;;;;;;;24.03;15.13;;;10.30;99.90;;;;;;5052417;28;20413;-70
2023/04/07 02:24:10;;;;;;;17.27;12.87;;;10.30;99.90;;;;;;5053544;28;20430;-69
2023/04/07 02:26:36;;;;;;;27.10;16.27;;;10.30;99.90;;;;;;5053617;28;20839;-69
2023/04/07 02:29:03;;;;;;;31.73;15.20;;;10.30;99.90;;;;;;5053240;28;20440;-69
2023/04/07 02:31:28;;;;;;;26.43;14.80;;;10.30;99.90;;;;;;5053597;28;20658;-70
2023/04/07 02:33:54;;;;;;;25.07;13.37;;;10.20;99.90;;;;;;5052090;28;20464;-70
2023/04/07 02:36:20;;;;;;;24.73;14.63;;;10.20;99.90;;;;;;5053451;28;20182;-69
2023/04/07 02:38:45;;;;;;;16.03;10.93;;;10.20;99.90;;;;;;5053124;28;20167;-69
2023/04/07 02:41:11;;;;;;;27.87;13.53;;;10.30;99.90;;;;;;5052175;28;20163;-70
2023/04/07 02:43:36;;;;;;;24.00;14.53;;;10.20;99.90;;;;;;5052380;28;20187;-70
2023/04/07 02:46:02;;;;;;;26.80;13.97;;;10.20;99.90;;;;;;5053275;28;20175;-69
2023/04/07 02:48:27;;;;;;;24.27;13.33;;;10.20;99.90;;;;;;5051735;28;20663;-69
2023/04/07 02:50:53;;;;;;;31.93;14.40;;;10.30;99.90;;;;;;5053009;28;20182;-70
2023/04/07 02:53:18;;;;;;;26.13;13.47;;;10.30;99.90;;;;;;5052757;28;20203;-69
2023/04/07 02:55:45;;;;;;;26.00;14.33;;;10.30;99.90;;;;;;5051761;28;20679;-69
2023/04/07 02:58:10;;;;;;;30.00;16.40;;;10.30;99.90;;;;;;5052657;28;20249;-69
2023/04/07 03:00:36;;;;;;;25.50;14.30;;;10.30;99.90;;;;;;5053059;28;20429;-70
2023/04/07 03:03:01;;;;;;;24.77;13.63;;;10.30;99.90;;;;;;5052746;28;20696;-69
2023/04/07 03:05:27;;;;;;;27.20;15.93;;;10.30;99.90;;;;;;5052619;28;20301;-69
2023/04/07 03:07:52;;;;;;;22.60;14.30;;;10.30;99.90;;;;;;5052614;28;20210;-69
2023/04/07 03:10:18;;;;;;;25.30;13.53;;;10.30;99.90;;;;;;5052798;28;20252;-69
2023/04/07 03:12:43;;;;;;;32.93;15.60;;;10.40;99.90;;;;;;5052481;28;20541;-69
2023/04/07 03:15:09;;;;;;;26.00;14.73;;;10.30;99.90;;;;;;5052640;28;20191;-69
2023/04/07 03:17:35;;;;;;;30.17;14.80;;;10.30;99.90;;;;;;5052467;28;20166;-70
2023/04/07 03:20:00;;;;;;;27.93;15.27;;;10.40;99.90;;;;;;5051410;28;20174;-70
2023/04/07 03:22:26;;;;;;;29.03;16.13;;;10.40;99.90;;;;;;5052606;28;20658;-69
2023/04/07 03:24:51;;;;;;;25.87;16.00;;;10.30;99.90;;;;;;5051954;28;20191;-69
2023/04/07 03:27:19;;;;;;;33.37;17.63;;;10.30;99.90;;;;;;5052162;28;20516;-71
2023/04/07 03:29:44;;;;;;;23.60;13.97;;;10.30;99.90;;;;;;5052437;28;20188;-70
2023/04/07 03:32:10;;;;;;;27.80;15.53;;;10.30;99.90;;;;;;5052446;28;20415;-70
2023/04/07 03:34:35;;;;;;;28.17;15.00;;;10.30;99.90;;;;;;5052186;28;20200;-69
2023/04/07 03:37:01;;;;;;;24.17;14.27;;;10.20;99.90;;;;;;5052068;28;20202;-69
2023/04/07 03:39:26;;;;;;;26.43;15.70;;;10.20;99.90;;;;;;5052343;28;20601;-69
2023/04/07 03:41:52;;;;;;;24.47;14.83;;;10.20;99.90;;;;;;5052302;28;20175;-69
2023/04/07 03:44:17;;;;;;;22.90;13.67;;;10.20;99.90;;;;;;5052194;28;20275;-70
2023/04/07 03:46:44;;;;;;;24.93;16.27;;;10.10;99.90;;;;;;5052228;28;20232;-70
2023/04/07 03:49:10;;;;;;;32.83;15.70;;;10.10;99.90;;;;;;5052004;28;20159;-68
2023/04/07 03:51:35;;;;;;;29.00;15.30;;;10.10;99.90;;;;;;5052129;28;20421;-70
2023/04/07 03:54:01;;;;;;;25.90;15.57;;;10.10;99.90;;;;;;5051671;28;20200;-70
2023/04/07 03:56:27;;;;;;;23.80;16.03;;;10.10;99.90;;;;;;5052106;28;20167;-70
2023/04/07 03:58:52;;;;;;;21.73;13.30;;;10.10;99.90;;;;;;5051765;28;20244;-69
2023/04/07 04:01:18;;;;;;;24.43;13.40;;;10.00;99.90;;;;;;5052042;28;20608;-70
2023/04/07 04:03:43;;;;;;;27.50;14.80;;;10.00;99.90;;;;;;5051938;28;20186;-70
2023/04/07 04:06:09;;;;;;;23.97;15.63;;;10.00;99.90;;;;;;5050664;28;20694;-70
2023/04/07 04:08:34;;;;;;;26.67;16.23;;;10.00;99.90;;;;;;5051649;28;20189;-71
2023/04/07 04:11:00;;;;;;;26.70;15.63;;;10.00;99.90;;;;;;5050698;28;20178;-69
2023/04/07 04:13:26;;;;;;;33.37;16.50;;;10.00;99.90;;;;;;5051754;28;20584;-71
2023/04/07 04:15:52;;;;;;;27.13;13.80;;;10.00;99.90;;;;;;5051895;28;20195;-71
2023/04/07 04:18:18;;;;;;;21.30;14.87;;;10.00;99.90;;;;;;5051609;28;20481;-70
2023/04/07 04:20:43;;;;;;;26.63;16.10;;;9.90;99.90;;;;;;5051877;28;20253;-70
2023/04/07 04:23:09;;;;;;;27.80;16.60;;;10.00;99.90;;;;;;5051791;28;20173;-71
2023/04/07 04:25:35;;;;;;;25.47;13.53;;;9.90;99.90;;;;;;5051827;28;20197;-70
2023/04/07 04:28:00;;;;;;;22.93;14.93;;;9.90;99.90;;;;;;5051489;28;20209;-70
2023/04/07 04:30:26;;;;;;;21.03;14.10;;;9.90;99.90;;;;;;5051753;28;20560;-70
2023/04/07 04:32:52;;;;;;;26.83;14.73;;;9.90;99.90;;;;;;5051648;28;20621;-70
2023/04/07 04:35:17;;;;;;;26.33;14.50;;;9.90;99.90;;;;;;5051547;28;20190;-70
2023/04/07 04:37:43;;;;;;;25.83;14.53;;;9.90;99.90;;;;;;5051386;28;20766;-70
2023/04/07 04:40:10;;;;;;;23.27;14.90;;;9.80;99.90;;;;;;5051652;28;20200;-70
2023/04/07 04:42:36;;;;;;;18.40;12.30;;;9.80;99.90;;;;;;5051601;28;20167;-70
2023/04/07 04:45:01;;;;;;;18.80;12.40;;;9.80;99.90;;;;;;5051592;28;20474;-70
2023/04/07 04:47:27;;;;;;;17.93;10.87;;;9.80;99.90;;;;;;5051300;28;20647;-70
2023/04/07 04:49:52;;;;;;;23.87;13.40;;;9.80;99.90;;;;;;5051581;28;20175;-70
2023/04/07 04:52:18;;;;;;;22.83;13.00;;;9.80;99.90;;;;;;5051599;28;20580;-70
2023/04/07 04:54:43;;;;;;;21.00;12.33;;;9.80;99.90;;;;;;5051402;28;20199;-70
2023/04/07 04:57:09;;;;;;;19.17;11.83;;;9.80;99.90;;;;;;5051311;28;20217;-70
2023/04/07 04:59:35;;;;;;;22.30;13.87;;;9.80;99.90;;;;;;5051529;28;20167;-70
2023/04/07 05:02:00;;;;;;;21.90;13.40;;;9.80;99.90;;;;;;5050159;28;20199;-70
2023/04/07 05:04:27;;;;;;;28.97;12.43;;;9.80;99.90;;;;;;5051285;28;20436;-70
2023/04/07 05:06:52;;;;;;;16.37;10.93;;;9.80;99.90;;;;;;5054854;28;20666;-70
2023/04/07 05:09:18;;;;;;;18.30;11.87;;;9.80;99.90;;;;;;5053845;28;20508;-71
2023/04/07 05:11:43;;;;;;;21.10;10.97;;;9.80;99.90;;;;;;5055129;28;20198;-71
2023/04/07 05:14:09;;;;;;;17.63;10.50;;;9.80;99.90;;;;;;5054781;28;20216;-71
2023/04/07 05:16:35;;;;;;;16.97;10.33;;;9.80;99.90;;;;;;5054937;28;20171;-70
2023/04/07 05:19:01;;;;;;;18.87;11.97;;;9.80;99.90;;;;;;5054635;28;20535;-70
2023/04/07 05:21:27;;;;;;;19.40;11.30;;;9.80;99.90;;;;;;5054796;28;20420;-70
2023/04/07 05:23:53;;;;;;;22.10;11.20;;;9.80;99.90;;;;;;5054789;28;20440;-70
2023/04/07 05:26:18;;;;;;;20.80;11.70;;;9.80;99.90;;;;;;5054823;28;20221;-70
2023/04/07 05:28:44;;;;;;;20.33;10.00;;;9.80;99.90;;;;;;5054496;28;20783;-69
2023/04/07 05:31:09;;;;;;;15.77;10.40;;;9.80;99.90;;;;;;5054755;28;20644;-69
2023/04/07 05:33:35;;;;;;;13.47;8.00;;;9.80;99.90;;;;;;5054923;28;20202;-70
2023/04/07 05:36:01;;;;;;;14.47;10.93;;;9.80;99.90;;;;;;5054711;28;20167;-70
2023/04/07 05:38:26;;;;;;;13.70;9.50;;;9.90;99.90;;;;;;5054208;28;20644;-70
2023/04/07 05:40:52;;;;;;;18.23;7.63;;;9.80;99.90;;;;;;5054487;28;20174;-69
2023/04/07 05:43:17;;;;;;;15.63;8.50;;;9.90;99.90;;;;;;5054913;28;20522;-70
2023/04/07 05:45:43;;;;;;;11.90;7.90;;;9.90;99.90;;;;;;5054470;28;20306;-70
2023/04/07 05:48:08;;;;;;;13.17;8.27;;;9.90;99.90;;;;;;5054062;28;20516;-70
2023/04/07 05:50:34;;;;;;;13.97;7.90;;;9.90;99.90;;;;;;5053037;28;20175;-70
2023/04/07 05:52:59;;;;;;;13.67;9.37;;;9.80;99.90;;;;;;5054080;28;20289;-69
2023/04/07 05:55:26;;;;;;;13.50;8.10;;;9.90;99.90;;;;;;5054228;28;20164;-70
2023/04/07 05:57:51;;;;;;;10.37;6.70;;;9.90;99.90;;;;;;5054047;28;20170;-71
2023/04/07 06:00:18;;;;;;;11.20;7.07;;;9.90;99.90;;;;;;5054153;28;20912;-70
2023/04/07 06:02:44;;;;;;;12.87;6.80;;;9.90;99.90;;;;;;5054089;28;20296;-70
2023/04/07 06:05:10;;;;;;;11.47;7.40;;;10.00;99.90;;;;;;5054039;28;20514;-70
2023/04/07 06:07:35;;;;;;;11.23;7.00;;;10.00;99.90;;;;;;5053724;28;20406;-70
2023/04/07 06:10:01;;;;;;;9.13;7.00;;;10.00;99.90;;;;;;5053992;28;20302;-70
2023/04/07 06:12:26;;;;;;;9.17;6.40;;;10.00;99.90;;;;;;5053864;28;20198;-71
2023/04/07 06:14:54;;;;;;;10.70;6.70;;;10.10;99.90;;;;;;5053811;28;20679;-70
2023/04/07 06:17:20;;;;;;;9.10;6.60;;;10.10;99.90;;;;;;5053357;28;20194;-70
2023/04/07 06:19:45;;;;;;;13.50;5.93;;;10.10;99.90;;;;;;5053789;28;20433;-70
2023/04/07 06:22:11;;;;;;;13.43;7.70;;;10.10;99.90;;;;;;5053760;28;20401;-70
2023/04/07 06:24:36;;;;;;;8.53;6.20;;;10.10;99.90;;;;;;5053589;28;20210;-70
2023/04/07 06:27:02;;;;;;;10.90;6.53;;;10.20;99.90;;;;;;5053378;28;20212;-70
2023/04/07 06:29:28;;;;;;;10.47;6.67;;;10.20;99.90;;;;;;5053685;28;20190;-70
2023/04/07 06:31:54;;;;;;;11.07;7.03;;;10.20;99.90;;;;;;5053598;28;20508;-70
2023/04/07 06:34:20;;;;;;;10.47;6.60;;;10.20;99.90;;;;;;5053307;28;20540;-70
2023/04/07 06:36:46;;;;;;;11.83;7.50;;;10.20;99.90;;;;;;5053569;28;20280;-71
2023/04/07 06:39:11;;;;;;;12.57;7.43;;;10.30;99.90;;;;;;5053352;28;20167;-71
2023/04/07 06:41:37;;;;;;;15.43;6.97;;;10.40;99.90;;;;;;5053358;28;20582;-71
2023/04/07 06:44:03;;;;;;;11.63;7.40;;;10.40;99.90;;;;;;5053303;28;20629;-71
2023/04/07 06:46:29;;;;;;;15.43;9.37;;;10.50;99.90;;;;;;5053237;28;20970;-70
2023/04/07 06:48:55;;;;;;;9.13;6.70;;;10.50;99.90;;;;;;5052969;28;20499;-70
2023/04/07 06:51:20;;;;;;;10.50;7.57;;;10.50;99.90;;;;;;5052223;28;20167;-70
2023/04/07 06:53:47;;;;;;;10.50;7.23;;;10.50;99.90;;;;;;5053479;28;20199;-71
2023/04/07 06:56:13;;;;;;;10.03;6.40;;;10.50;99.90;;;;;;5053175;28;20216;-71
2023/04/07 06:58:39;;;;;;;7.80;6.40;;;10.60;99.90;;;;;;5051525;28;20418;-71
2023/04/07 07:01:05;;;;;;;8.90;5.53;;;10.60;99.90;;;;;;5053039;28;20174;-71
2023/04/07 07:03:31;;;;;;;8.30;5.80;;;10.70;99.90;;;;;;5052893;28;20786;-70
2023/04/07 07:05:59;;;;;;;8.17;5.53;;;10.70;99.90;;;;;;5052889;28;20480;-70
2023/04/07 07:08:25;;;;;;;7.10;5.23;;;10.80;99.90;;;;;;5052663;28;20905;-70
2023/04/07 07:10:51;;;;;;;9.50;6.27;;;10.90;99.90;;;;;;5052660;28;20427;-70
2023/04/07 07:13:18;;;;;;;6.70;4.93;;;10.90;99.90;;;;;;5052487;28;20453;-70
2023/04/07 07:15:44;;;;;;;10.87;6.03;;;10.90;99.90;;;;;;5052719;28;20393;-70
2023/04/07 07:18:11;;;;;;;7.43;4.63;;;11.00;99.90;;;;;;5052438;28;20413;-70
2023/04/07 07:20:36;;;;;;;7.50;5.30;;;11.00;99.90;;;;;;5052654;28;20401;-70
2023/04/07 07:23:02;;;;;;;6.47;4.57;;;11.00;99.90;;;;;;5052508;28;20409;-70
2023/04/07 07:25:28;;;;;;;8.00;5.20;;;11.00;99.90;;;;;;5052520;28;20578;-70
2023/04/07 07:27:54;;;;;;;6.60;4.70;;;11.10;99.90;;;;;;5051639;28;20578;-70
2023/04/07 07:30:20;;;;;;;7.00;4.53;;;11.10;99.90;;;;;;5052474;28;20409;-70
2023/04/07 07:32:46;;;;;;;8.73;6.30;;;11.10;99.90;;;;;;5052306;28;20171;-70
2023/04/07 07:35:12;;;;;;;11.40;5.50;;;11.20;99.90;;;;;;5052299;28;20803;-70
2023/04/07 07:37:37;;;;;;;6.77;4.40;;;11.20;99.90;;;;;;5052000;28;20174;-70
2023/04/07 07:40:03;;;;;;;5.03;3.90;;;11.30;99.90;;;;;;5052340;28;20170;-70
2023/04/07 07:42:30;;;;;;;6.03;3.97;;;11.30;99.90;;;;;;5052235;28;20212;-70
2023/04/07 07:44:56;;;;;;;6.67;4.77;;;11.30;99.90;;;;;;5052179;28;20451;-70
2023/04/07 07:47:22;;;;;;;5.73;3.37;;;11.30;99.90;;;;;;5051936;28;20412;-70
2023/04/07 07:49:48;;;;;;;6.33;4.97;;;11.40;99.90;;;;;;5050910;28;20488;-70
2023/04/07 07:52:13;;;;;;;8.20;4.30;;;11.40;99.90;;;;;;5052167;28;20170;-70
2023/04/07 07:54:39;;;;;;;5.10;4.30;;;11.40;99.90;;;;;;5052047;28;20781;-70
2023/04/07 07:57:05;;;;;;;7.03;4.07;;;11.40;99.90;;;;;;5051676;28;20158;-70
2023/04/07 07:59:31;;;;;;;8.57;5.00;;;11.30;99.90;;;;;;5052017;28;20178;-70
2023/04/07 08:01:57;;;;;;;5.40;3.40;;;11.30;99.90;;;;;;5052042;28;20572;-70
2023/04/07 08:04:22;;;;;;;5.70;4.23;;;11.30;99.90;;;;;;5052091;28;20764;-70
2023/04/07 08:06:49;;;;;;;7.17;5.00;;;11.30;99.90;;;;;;5051795;28;20402;-70
2023/04/07 08:09:15;;;;;;;6.80;4.40;;;11.30;99.90;;;;;;5051886;28;20177;-70
2023/04/07 08:11:40;;;;;;;8.30;5.50;;;11.30;99.90;;;;;;5051893;28;20766;-70
2023/04/07 08:14:06;;;;;;;7.37;5.67;;;11.30;99.90;;;;;;5051613;28;20229;-70
2023/04/07 08:16:32;;;;;;;8.10;5.20;;;11.30;99.90;;;;;;5051904;28;20587;-70
2023/04/07 08:18:57;;;;;;;7.00;4.70;;;11.40;99.90;;;;;;5051577;28;20409;-70
2023/04/07 08:21:23;;;;;;;8.50;4.67;;;11.40;99.90;;;;;;5051794;28;20166;-70
2023/04/07 08:23:49;;;;;;;8.33;5.30;;;11.50;99.90;;;;;;5051350;28;20542;-70
2023/04/07 08:26:14;;;;;;;9.87;6.43;;;11.60;99.90;;;;;;5050485;28;20171;-70
2023/04/07 08:28:40;;;;;;;7.97;6.43;;;11.60;99.90;;;;;;5050150;28;20183;-70
2023/04/07 08:31:06;;;;;;;6.67;5.93;;;11.70;99.90;;;;;;5051760;28;20173;-70
2023/04/07 08:33:31;;;;;;;8.43;5.00;;;11.80;99.90;;;;;;5051582;28;20737;-70
2023/04/07 08:35:57;;;;;;;14.63;5.70;;;11.90;99.90;;;;;;5051615;28;20496;-70
2023/04/07 08:38:23;;;;;;;9.20;5.30;;;11.90;99.90;;;;;;5051325;28;20212;-70
2023/04/07 08:40:53;;;;;;;9.40;4.93;;;11.90;99.90;;;;;;5053811;28;20163;-70
2023/04/07 08:43:20;;;;;;;7.50;5.57;;;12.10;99.90;;;;;;5055450;28;20781;-70
2023/04/07 08:45:46;;;;;;;8.47;5.50;;;12.20;99.90;;;;;;5055608;28;20775;-70
2023/04/07 08:48:16;;;;;;;7.97;6.00;;;12.40;99.90;;;;;;5055281;28;20409;-70
2023/04/07 08:50:44;;;;;;;9.20;6.10;;;12.60;99.90;;;;;;5055590;28;20899;-70
2023/04/07 08:53:13;;;;;;;6.90;4.63;;;12.80;99.90;;;;;;5053973;28;21032;-70
2023/04/07 08:55:39;;;;;;;7.07;4.60;;;12.90;99.90;;;;;;5055031;28;20476;-70
2023/04/07 08:58:05;;;;;;;11.70;6.33;;;13.10;99.90;;;;;;5055014;28;20425;-70
2023/04/07 09:00:31;;;;;;;6.97;5.20;;;13.30;99.90;;;;;;5055455;28;20436;-70
2023/04/07 09:02:58;;;;;;;5.00;3.70;;;13.50;99.90;;;;;;5054139;28;20409;-70
2023/04/07 09:05:25;;;;;;;6.10;4.00;;;13.70;99.90;;;;;;5055187;28;20191;-70
2023/04/07 09:07:50;;;;;;;8.17;4.63;;;13.90;99.90;;;;;;5053872;28;20413;-71
2023/04/07 09:10:16;;;;;;;5.20;4.20;;;14.00;99.90;;;;;;5055079;28;20455;-70
2023/04/07 09:12:42;;;;;;;6.80;4.20;;;13.90;99.90;;;;;;5055035;28;20539;-71
2023/04/07 09:15:08;;;;;;;5.10;4.40;;;13.80;99.90;;;;;;5055035;28;20508;-71
2023/04/07 09:17:33;;;;;;;6.40;4.60;;;13.60;99.90;;;;;;5054747;28;20163;-71
2023/04/07 09:19:59;;;;;;;5.60;4.43;;;13.50;99.90;;;;;;5053692;28;20175;-71
2023/04/07 09:22:41;;;;;;;6.67;3.87;;;13.40;99.90;;;;;;5054981;28;20524;-71
2023/04/07 09:25:25;;;;;;;11.73;4.70;;;13.40;99.90;;;;;;5053512;28;20467;-71
2023/04/07 09:27:57;;;;;;;7.70;4.53;;;13.40;99.90;;;;;;5054628;28;20766;-70
2023/04/07 09:30:24;;;;;;;6.27;4.47;;;13.50;99.90;;;;;;5054764;28;20910;-70
2023/04/07 09:32:50;;;;;;;8.33;5.40;;;13.50;99.90;;;;;;5054582;28;20397;-71
2023/04/07 09:35:15;;;;;;;8.83;5.53;;;13.50;99.90;;;;;;5053294;28;20804;-71
2023/04/07 09:37:41;;;;;;;8.00;5.10;;;13.40;99.90;;;;;;5054422;28;20455;-71
2023/04/07 09:40:07;;;;;;;7.03;4.77;;;13.30;99.90;;;;;;5054624;28;20159;-70
2023/04/07 09:42:35;;;;;;;9.00;5.20;;;13.20;99.90;;;;;;5054608;28;20811;-70
2023/04/07 09:45:01;;;;;;;8.47;6.43;;;13.10;99.90;;;;;;5053091;28;20444;-70
2023/04/07 09:47:28;;;;;;;9.23;6.83;;;13.00;99.90;;;;;;5054156;28;20405;-71
2023/04/07 09:49:55;;;;;;;10.47;6.73;;;12.90;99.90;;;;;;5054354;28;20194;-70
2023/04/07 09:52:24;;;;;;;8.70;6.47;;;12.80;99.90;;;;;;5053820;28;20785;-71
2023/04/07 09:54:50;;;;;;;9.33;6.80;;;12.70;99.90;;;;;;5054031;28;20484;-70
2023/04/07 09:57:17;;;;;;;10.23;6.97;;;12.60;99.90;;;;;;5054064;28;20459;-71
2023/04/07 09:59:43;;;;;;;10.87;7.50;;;12.50;99.90;;;;;;5054233;28;20474;-70
2023/04/07 10:02:10;;;;;;;8.93;6.17;;;12.40;99.90;;;;;;5053987;28;20400;-70
2023/04/07 10:04:36;;;;;;;11.20;6.47;;;12.40;99.90;;;;;;5054176;28;20997;-70
2023/04/07 10:07:02;;;;;;;16.00;8.10;;;12.30;99.90;;;;;;5053571;28;20517;-70
2023/04/07 10:09:29;;;;;;;8.70;7.23;;;12.30;99.90;;;;;;5054036;28;20187;-68
2023/04/07 10:11:56;;;;;;;10.00;7.23;;;12.30;99.90;;;;;;5053913;28;20405;-70
2023/04/07 10:14:29;;;;;;;18.00;9.43;;;12.20;99.90;;;;;;5053674;28;20507;-70
2023/04/07 10:16:56;;;;;;;14.73;7.60;;;12.10;99.90;;;;;;5053131;28;20397;-70
2023/04/07 10:19:21;;;;;;;14.80;7.00;;;12.10;99.90;;;;;;5053654;28;20492;-71
2023/04/07 10:21:51;;;;;;;11.17;7.90;;;12.10;99.90;;;;;;5052531;28;20485;-70
2023/04/07 10:24:45;;;;;;;11.60;8.50;;;12.10;99.90;;;;;;5053637;28;20286;-70
2023/04/07 10:27:26;;;;;;;11.53;7.97;;;12.10;99.90;;;;;;5053360;28;20431;-70
2023/04/07 10:29:53;;;;;;;10.27;5.93;;;12.10;99.90;;;;;;5053466;28;20427;-71
2023/04/07 10:32:18;;;;;;;11.80;6.70;;;12.10;99.90;;;;;;5053943;28;20397;-70
2023/04/07 10:34:49;;;;;;;12.97;7.83;;;12.10;99.90;;;;;;5053397;28;20453;-71
2023/04/07 10:37:18;;;;;;;10.07;7.03;;;12.00;99.90;;;;;;5053241;28;20163;-70
2023/04/07 10:39:44;;;;;;;13.83;9.10;;;12.00;99.90;;;;;;5053393;28;20404;-70
2023/04/07 10:42:38;;;;;;;13.00;8.00;;;12.00;99.90;;;;;;5053363;28;20911;-70
2023/04/07 10:45:04;;;;;;;10.67;6.90;;;12.00;99.90;;;;;;5053215;28;20194;-70
2023/04/07 10:47:31;;;;;;;11.53;7.43;;;12.00;99.90;;;;;;5052959;28;20401;-70
2023/04/07 10:50:19;;;;;;;14.03;8.27;;;12.00;99.90;;;;;;5053248;28;20405;-70
2023/04/07 10:52:47;;;;;;;11.60;7.20;;;12.00;99.90;;;;;;5051940;28;20782;-70
2023/04/07 10:55:34;;;;;;;9.30;6.87;;;12.00;99.90;;;;;;5053061;28;20479;-70
2023/04/07 10:58:16;;;;;;;14.83;7.27;;;11.90;99.90;;;;;;5052853;28;20389;-70
2023/04/07 11:01:06;;;;;;;9.40;6.97;;;11.90;99.90;;;;;;5052969;28;20404;-70
2023/04/07 11:03:33;;;;;;;8.03;6.00;;;11.90;99.90;;;;;;5048351;28;20526;-70
2023/04/07 11:06:28;;;;;;;9.33;7.23;;;11.90;99.90;;;;;;5052934;28;20715;-70
2023/04/07 11:08:54;;;;;;;9.07;6.30;;;11.80;99.90;;;;;;5047844;28;20496;-70
2023/04/07 11:11:36;;;;;;;9.83;6.60;;;11.80;99.90;;;;;;5052762;28;20497;-70
2023/04/07 11:14:01;;;;;;;12.47;7.03;;;11.80;99.90;;;;;;5052514;28;20198;-70
2023/04/07 11:16:41;;;;;;;8.30;6.60;;;11.90;99.90;;;;;;5052999;28;20953;-70
2023/04/07 11:19:07;;;;;;;9.23;6.70;;;12.10;99.90;;;;;;5052435;28;20185;-70
2023/04/07 11:21:33;;;;;;;7.23;6.07;;;12.40;99.90;;;;;;5052614;28;20398;-70
2023/04/07 11:23:58;;;;;;;8.87;5.93;;;12.80;99.90;;;;;;5052475;28;20517;-70
2023/04/07 11:26:24;;;;;;;10.70;6.07;;;13.10;99.90;;;;;;5052556;28;20167;-71
2023/04/07 11:28:52;;;;;;;10.40;6.00;;;13.50;99.90;;;;;;5052240;28;20167;-71
2023/04/07 11:31:28;;;;;;;10.37;6.80;;;13.70;99.90;;;;;;5052459;28;20178;-71
2023/04/07 11:33:56;;;;;;;9.43;6.93;;;13.80;99.90;;;;;;5052305;28;20448;-71
2023/04/07 11:36:32;;;;;;;6.97;6.10;;;13.60;99.90;;;;;;5052376;28;20406;-71
2023/04/07 11:39:00;;;;;;;13.60;7.67;;;13.50;99.90;;;;;;5052077;28;20425;-70
2023/04/07 11:41:29;;;;;;;13.47;8.20;;;13.40;99.90;;;;;;5052331;28;20403;-70
2023/04/07 11:44:09;;;;;;;12.20;7.03;;;13.30;99.90;;;;;;5052218;28;20512;-70
2023/04/07 11:46:36;;;;;;;11.47;8.07;;;13.20;99.90;;;;;;5052186;28;20856;-71
2023/04/07 11:49:13;;;;;;;13.53;10.13;;;13.20;99.90;;;;;;5051938;28;20416;-71
2023/04/07 11:51:40;;;;;;;14.80;8.83;;;13.30;99.90;;;;;;5052176;28;20447;-71
2023/04/07 11:54:05;;;;;;;8.10;7.20;;;13.50;99.90;;;;;;5051999;28;20479;-71
2023/04/07 11:56:42;;;;;;;10.60;7.33;;;13.70;99.90;;;;;;5052052;28;20393;-71
2023/04/07 11:59:08;;;;;;;8.87;6.80;;;14.00;99.90;;;;;;5051728;28;20155;-71
2023/04/07 12:01:40;;;;;;;13.87;8.30;;;14.30;99.90;;;;;;5051983;28;20845;-71
2023/04/07 12:04:11;;;;;;;10.83;7.33;;;14.60;99.90;;;;;;5050595;28;20198;-71
2023/04/07 12:06:40;;;;;;;9.10;6.83;;;14.70;99.90;;;;;;5051959;28;20401;-71
2023/04/07 12:09:07;;;;;;;10.30;7.30;;;14.80;99.90;;;;;;5050442;28;20930;-71
2023/04/07 12:11:35;;;;;;;6.90;5.43;;;14.90;99.90;;;;;;5051864;28;20410;-71
2023/04/07 12:14:03;;;;;;;9.50;5.73;;;14.90;99.90;;;;;;5051578;28;20489;-72
2023/04/07 12:16:30;;;;;;;10.10;6.20;;;14.90;99.90;;;;;;5051845;28;20444;-70
2023/04/07 12:18:56;;;;;;;10.60;7.50;;;14.80;99.90;;;;;;5051586;28;20810;-70
2023/04/07 12:21:22;;;;;;;11.27;7.23;;;14.70;99.90;;;;;;5050497;28;20558;-70
2023/04/07 12:23:48;;;;;;;10.80;7.60;;;14.50;99.90;;;;;;5051764;28;20425;-70
2023/04/07 12:26:13;;;;;;;16.83;8.00;;;14.30;99.90;;;;;;5051724;28;20520;-70
2023/04/07 12:28:39;;;;;;;14.47;7.37;;;14.20;99.90;;;;;;5051422;28;20249;-70
2023/04/07 12:31:04;;;;;;;10.93;7.50;;;14.10;99.90;;;;;;5051737;28;20542;-70
2023/04/07 12:33:30;;;;;;;13.13;7.67;;;14.10;99.90;;;;;;5051508;28;20198;-70
2023/04/07 12:35:57;;;;;;;18.97;8.10;;;14.00;99.90;;;;;;5051638;28;20177;-70
2023/04/07 12:38:22;;;;;;;13.03;7.10;;;14.10;99.90;;;;;;5051365;28;20401;-70